createdAt,value
2023-01-03T00:04:56.340Z,0.10
2023-01-03T00:10:01.702Z,0.40
2023-01-03T00:15:05.927Z,0.20
2023-01-03T00:20:10.616Z,0.20
2023-01-03T00:25:14.639Z,0.20
2023-01-03T00:30:18.152Z,0.30
2023-01-03T00:35:21.563Z,0.30
2023-01-03T00:40:25.077Z,0.20
2023-01-03T00:45:33.628Z,0.20
2023-01-03T00:50:39.079Z,0.20
2023-01-03T00:55:42.699Z,0.30
2023-01-03T01:00:46.203Z,0.40
2023-01-03T01:05:49.725Z,0.30
2023-01-03T01:11:02.489Z,0.30
2023-01-03T01:16:09.979Z,0.40
2023-01-03T01:21:16.850Z,0.50
2023-01-03T01:26:22.729Z,0.40
2023-01-03T01:31:27.329Z,0.20
2023-01-03T01:36:34.399Z,0.40
2023-01-03T01:41:57.338Z,0.50
2023-01-03T01:47:02.489Z,0.60
2023-01-03T01:52:07.240Z,0.40
2023-01-03T01:57:16.194Z,0.30
2023-01-03T02:02:22.053Z,0.80
2023-01-03T02:07:25.774Z,0.40
2023-01-03T02:12:54.279Z,0.50
2023-01-03T02:18:15.818Z,0.40
2023-01-03T02:23:51.188Z,0.30
2023-01-03T02:29:18.240Z,0.30
2023-01-03T02:34:40.391Z,0.40
2023-01-03T02:39:54.456Z,0.40
2023-01-03T02:45:11.385Z,0.30
2023-01-03T02:50:15.758Z,0.50
2023-01-03T02:55:28.480Z,0.20
2023-01-03T03:00:34.509Z,0.60
2023-01-03T03:05:53.513Z,0.40
2023-01-03T03:11:16.275Z,0.40
2023-01-03T03:16:45.387Z,0.30
2023-01-03T03:22:08.358Z,0.40
2023-01-03T03:27:47.825Z,0.30
2023-01-03T03:32:54.591Z,0.60
2023-01-03T03:38:00.404Z,0.80
2023-01-03T03:43:51.919Z,0.70
2023-01-03T03:49:21.655Z,0.50
2023-01-03T03:54:28.123Z,0.40
2023-01-03T03:59:33.712Z,0.50
2023-01-03T04:04:42.540Z,0.60
2023-01-03T04:09:46.166Z,0.70
2023-01-03T04:14:49.674Z,0.80
2023-01-03T04:19:53.293Z,0.50
2023-01-03T04:24:57.114Z,0.60
2023-01-03T04:30:00.552Z,0.40
2023-01-03T04:35:04.517Z,0.90
2023-01-03T04:40:08.887Z,0.70
2023-01-03T04:50:16.026Z,0.70
2023-01-03T04:55:19.441Z,0.60
2023-01-03T05:00:23.059Z,0.50
2023-01-03T05:05:26.570Z,0.50
2023-01-03T05:10:30.191Z,0.40
2023-01-03T05:15:37.595Z,0.40
2023-01-03T05:20:59.543Z,0.80
2023-01-03T05:26:07.262Z,0.60
2023-01-03T05:32:11.013Z,1.00
2023-01-03T05:37:14.705Z,0.90
2023-01-03T05:42:18.335Z,1.10
2023-01-03T05:47:21.964Z,1.40
2023-01-03T05:52:25.460Z,2.10
2023-01-03T05:57:35.120Z,2.20
2023-01-03T06:02:39.212Z,1.90
2023-01-03T06:07:42.769Z,1.50
2023-01-03T06:12:46.248Z,1.20
2023-01-03T06:17:58.056Z,15.80
2023-01-03T06:23:01.816Z,8.70
2023-01-03T06:28:05.323Z,2.90
2023-01-03T06:33:08.843Z,1.00
2023-01-03T06:38:39.388Z,2.30
2023-01-03T06:47:04.430Z,2.10
2023-01-03T06:52:33.243Z,6.00
2023-01-03T06:57:36.854Z,3.70
2023-01-03T07:02:40.538Z,1.40
2023-01-03T07:07:44.604Z,1.50
2023-01-03T07:13:07.062Z,1.00
2023-01-03T07:18:10.579Z,1.40
2023-01-03T07:23:14.604Z,0.80
2023-01-03T07:28:18.630Z,0.80
2023-01-03T07:33:22.151Z,1.40
2023-01-03T07:38:25.558Z,1.30
2023-01-03T07:43:38.401Z,1.50
2023-01-03T07:48:42.842Z,0.90
2023-01-03T07:58:52.124Z,2.10
2023-01-03T08:03:55.936Z,1.60
2023-01-03T08:09:17.882Z,1.90
2023-01-03T08:14:25.655Z,1.10
2023-01-03T08:19:29.420Z,1.00
2023-01-03T08:24:32.936Z,1.60
2023-01-03T08:29:36.450Z,1.10
2023-01-03T08:34:44.521Z,1.10
2023-01-03T08:39:55.565Z,1.50
2023-01-03T08:45:03.804Z,1.30
2023-01-03T08:50:08.333Z,1.20
2023-01-03T09:00:15.997Z,1.90
2023-01-03T09:10:23.676Z,1.10
2023-01-03T09:15:27.134Z,1.20
2023-01-03T09:20:30.961Z,1.60
2023-01-03T09:25:37.373Z,0.80
2023-01-03T09:30:41.472Z,1.10
2023-01-03T09:35:44.990Z,1.10
2023-01-03T09:40:58.644Z,1.20
2023-01-03T09:46:02.463Z,0.90
2023-01-03T09:51:30.285Z,1.30
2023-01-03T09:56:52.721Z,0.80
2023-01-03T10:02:40.429Z,0.90
2023-01-03T10:08:03.946Z,0.80
2023-01-03T10:13:20.503Z,1.20
2023-01-03T10:18:59.519Z,1.00
2023-01-03T10:24:17.604Z,1.10
2023-01-03T10:29:21.405Z,1.20
2023-01-03T10:34:24.906Z,0.80
2023-01-03T10:39:32.657Z,0.90
2023-01-03T10:44:36.134Z,1.40
2023-01-03T10:49:45.696Z,0.50
2023-01-03T10:54:54.128Z,1.20
2023-01-03T10:59:57.644Z,1.30
2023-01-03T11:05:12.767Z,1.30
2023-01-03T11:10:18.801Z,1.00
2023-01-03T11:15:38.004Z,1.00
2023-01-03T11:20:51.019Z,1.40
2023-01-03T11:25:57.093Z,1.10
2023-01-03T11:31:09.420Z,0.90
2023-01-03T11:36:27.168Z,1.50
2023-01-03T11:41:33.344Z,1.40
2023-01-03T11:47:03.177Z,1.20
2023-01-03T11:52:12.530Z,1.50
2023-01-03T11:57:51.477Z,1.60
2023-01-03T12:03:29.471Z,1.50
2023-01-03T12:08:56.265Z,1.00
2023-01-03T12:14:14.730Z,1.60
2023-01-03T12:19:46.925Z,1.10
2023-01-03T12:25:02.540Z,1.40
2023-01-03T12:30:36.854Z,1.30
2023-01-03T12:36:05.970Z,1.10
2023-01-03T12:41:30.680Z,1.80
2023-01-03T12:51:40.701Z,1.20
2023-01-03T12:56:44.199Z,1.20
2023-01-03T13:01:59.349Z,1.40
2023-01-03T13:07:26.356Z,1.10
2023-01-03T13:12:35.425Z,1.40
2023-01-03T13:17:48.130Z,1.40
2023-01-03T13:22:59.031Z,1.70
2023-01-03T13:28:29.998Z,1.30
2023-01-03T13:33:55.820Z,1.40
2023-01-03T13:39:00.642Z,1.60
2023-01-03T13:44:15.650Z,1.70
2023-01-03T13:49:28.445Z,2.40
2023-01-03T13:54:58.627Z,1.80
2023-01-03T14:00:09.750Z,1.30
2023-01-03T14:05:54.699Z,1.60
2023-01-03T14:11:36.893Z,1.70
2023-01-03T14:16:50.038Z,1.80
2023-01-03T14:22:21.190Z,1.40
2023-01-03T14:27:31.572Z,1.50
2023-01-03T14:32:36.245Z,1.10
2023-01-03T14:37:46.504Z,1.60
2023-01-03T14:42:49.843Z,1.60
2023-01-03T14:47:55.423Z,1.40
2023-01-03T14:53:01.401Z,1.50
2023-01-03T14:58:38.463Z,1.50
2023-01-03T15:03:46.278Z,1.20
2023-01-03T15:08:56.032Z,2.00
2023-01-03T15:14:03.671Z,1.30
2023-01-03T15:19:19.852Z,1.40
2023-01-03T15:24:24.104Z,1.70
2023-01-03T15:29:45.025Z,1.30
2023-01-03T15:34:50.101Z,1.60
2023-01-03T15:39:56.850Z,1.50
2023-01-03T15:45:00.712Z,1.80
2023-01-03T15:50:06.654Z,1.60
2023-01-03T15:55:12.997Z,1.20
2023-01-03T16:00:23.210Z,1.70
2023-01-03T16:05:26.561Z,1.50
2023-01-03T16:10:29.958Z,2.00
2023-01-03T16:15:33.468Z,2.20
2023-01-03T16:20:36.884Z,1.90
2023-01-03T16:25:40.253Z,1.60
2023-01-03T16:30:43.728Z,1.40
2023-01-03T16:35:48.350Z,1.50
2023-01-03T16:40:54.547Z,1.40
2023-01-03T16:45:59.924Z,2.00
2023-01-03T16:51:03.893Z,1.70
2023-01-03T16:56:10.102Z,1.60
2023-01-03T17:01:14.594Z,1.50
2023-01-03T17:06:37.991Z,1.50
2023-01-03T17:11:41.852Z,1.40
2023-01-03T17:16:45.546Z,1.40
2023-01-03T17:21:51.452Z,1.80
2023-01-03T17:27:03.543Z,1.60
2023-01-03T17:32:18.753Z,2.10
2023-01-03T17:37:23.283Z,2.20
2023-01-03T17:42:29.336Z,1.90
2023-01-03T17:47:52.422Z,3.10
2023-01-03T17:52:56.692Z,3.40
2023-01-03T17:58:03.242Z,3.30
2023-01-03T18:03:07.484Z,2.70
2023-01-03T18:08:18.408Z,3.60
2023-01-03T18:13:24.349Z,3.60
2023-01-03T18:18:29.277Z,2.60
2023-01-03T18:23:36.611Z,2.30
2023-01-03T18:28:40.201Z,2.70
2023-01-03T18:33:43.883Z,2.40
2023-01-03T18:38:48.185Z,2.40
2023-01-03T18:48:55.230Z,1.90
2023-01-03T18:53:59.911Z,1.70
2023-01-03T18:59:13.584Z,2.10
2023-01-03T19:04:17.544Z,1.70
2023-01-03T19:09:26.440Z,2.40
2023-01-03T19:14:30.177Z,2.00
2023-01-03T19:19:33.991Z,1.90
2023-01-03T19:24:39.773Z,1.90
2023-01-03T19:29:44.905Z,1.70
2023-01-03T19:34:49.175Z,1.80
2023-01-03T19:39:54.987Z,1.60
2023-01-03T19:45:01.859Z,2.20
2023-01-03T19:50:23.783Z,2.00
2023-01-03T19:55:30.862Z,1.80
2023-01-03T20:00:37.148Z,2.90
2023-01-03T20:05:40.979Z,3.30
2023-01-03T20:10:45.150Z,3.50
2023-01-03T20:15:53.903Z,4.30
2023-01-03T20:21:26.873Z,4.50
2023-01-03T20:26:34.229Z,3.50
2023-01-03T20:31:39.581Z,3.90
2023-01-03T20:36:51.835Z,4.70
2023-01-03T20:42:03.274Z,4.50
2023-01-03T20:47:14.838Z,6.10
2023-01-03T20:52:20.830Z,5.80
2023-01-03T20:57:26.826Z,6.20
2023-01-03T21:02:32.746Z,6.60
2023-01-03T21:07:55.800Z,7.70
2023-01-03T21:26:15.603Z,4.90
2023-01-03T21:31:21.710Z,6.00
2023-01-03T21:36:31.451Z,4.80
2023-01-03T21:41:56.299Z,5.10
2023-01-03T21:46:59.878Z,4.30
2023-01-03T21:52:03.596Z,4.80
2023-01-03T21:57:07.116Z,5.60
2023-01-03T22:02:31.811Z,4.90
2023-01-03T22:07:35.554Z,4.30
2023-01-03T22:12:39.070Z,4.70
2023-01-03T22:17:43.189Z,4.00
2023-01-03T22:22:46.912Z,4.00
2023-01-03T22:27:50.734Z,3.70
2023-01-03T22:32:57.845Z,3.20
2023-01-03T22:38:01.248Z,3.10
2023-01-03T22:43:05.695Z,4.10
2023-01-03T22:53:12.617Z,3.30
2023-01-03T22:58:17.871Z,3.30
2023-01-03T23:03:21.177Z,3.60
2023-01-03T23:08:24.697Z,2.80
2023-01-03T23:13:28.314Z,3.00
2023-01-03T23:18:33.777Z,3.50
2023-01-03T23:23:37.193Z,3.20
2023-01-03T23:28:40.702Z,3.40
2023-01-03T23:33:44.320Z,4.00
2023-01-03T23:38:47.840Z,4.90
2023-01-03T23:43:52.070Z,4.20
2023-01-03T23:48:57.235Z,3.80
2023-01-03T23:54:00.636Z,4.80
2023-01-03T23:59:04.557Z,4.40
